Time;durP1;ratioP1;P1;durP2;ratioP2;P2;SDS_P1;SDS_P2;PMS_P1;PMS_P2;Temp;Humidity;BMP_temperature;BMP_pressure;BME280_temperature;BME280_humidity;BME280_pressure;Samples;Min_cycle;Max_cycle;Signal;HPM_P1;HPM_P2
2022/01/19 00:03:58;;;;;;;36.00;11.52;;;6.50;99.90;;;;;;10209515;28;84954;-46
2022/01/19 00:08:59;;;;;;;29.48;10.73;;;6.40;99.90;;;;;;10191512;28;84317;-46
2022/01/19 00:13:59;;;;;;;31.40;10.45;;;6.40;99.90;;;;;;10192837;28;84915;-47
2022/01/19 00:19:00;;;;;;;30.10;9.63;;;6.30;99.90;;;;;;10215137;28;84840;-43
2022/01/19 00:24:01;;;;;;;28.30;9.10;;;6.20;99.90;;;;;;10195885;28;86982;-44
2022/01/19 00:29:01;;;;;;;25.67;9.15;;;6.20;99.90;;;;;;10213146;28;84744;-45
2022/01/19 00:34:02;;;;;;;27.67;9.60;;;6.10;99.90;;;;;;10181166;28;85750;-44
2022/01/19 00:39:03;;;;;;;25.48;9.30;;;6.00;99.90;;;;;;10195440;28;86739;-49
2022/01/19 00:44:04;;;;;;;28.40;10.55;;;5.90;99.90;;;;;;10154763;28;85161;-45
2022/01/19 00:49:05;;;;;;;26.70;9.43;;;5.80;99.90;;;;;;10153138;28;86841;-47
2022/01/19 00:54:05;;;;;;;27.92;9.88;;;5.70;99.90;;;;;;10170702;28;84885;-48
2022/01/19 00:59:06;;;;;;;18.65;8.05;;;5.60;99.90;;;;;;10171899;28;84722;-44
2022/01/19 01:04:07;;;;;;;31.08;9.82;;;5.60;99.90;;;;;;10154289;28;86015;-44
2022/01/19 01:09:07;;;;;;;23.05;8.50;;;5.50;99.90;;;;;;10171392;28;84796;-43
2022/01/19 01:19:10;;;;;;;23.02;9.50;;;5.40;99.90;;;;;;10169944;28;84718;-46
2022/01/19 01:24:13;;;;;;;23.80;9.18;;;5.40;99.90;;;;;;10152361;28;86928;-44
2022/01/19 01:29:14;;;;;;;22.48;8.63;;;5.30;99.90;;;;;;10152187;28;86695;-45
2022/01/19 01:34:14;;;;;;;21.30;7.82;;;5.30;99.90;;;;;;10152245;28;86113;-46
2022/01/19 01:39:16;;;;;;;19.52;8.07;;;5.30;99.90;;;;;;10187831;28;84459;-43
2022/01/19 01:44:17;;;;;;;29.13;10.52;;;5.10;99.90;;;;;;10175562;28;85965;-44
2022/01/19 01:49:26;;;;;;;21.13;8.63;;;5.10;99.90;;;;;;10207585;28;86820;-44
2022/01/19 01:54:27;;;;;;;16.88;7.95;;;5.00;99.90;;;;;;10207747;28;85833;-45
2022/01/19 01:59:28;;;;;;;20.77;8.38;;;5.00;99.90;;;;;;10209012;28;84079;-43
2022/01/19 02:04:47;;;;;;;23.27;7.75;;;5.00;99.90;;;;;;10208896;28;84399;-39
2022/01/19 02:09:52;;;;;;;20.35;8.32;;;4.90;99.90;;;;;;10207280;28;85903;-45
2022/01/19 02:25:55;;;;;;;22.10;8.10;;;4.60;99.90;;;;;;10188749;28;85817;-45
2022/01/19 02:41:16;;;;;;;24.77;8.43;;;4.40;99.90;;;;;;10172906;28;84221;-44
2022/01/19 02:51:36;;;;;;;23.80;8.10;;;4.30;99.90;;;;;;10150133;28;86034;-43
2022/01/19 02:56:39;;;;;;;17.33;7.38;;;4.30;99.90;;;;;;10168785;28;84870;-44
2022/01/19 03:08:44;;;;;;;17.42;7.00;;;4.50;99.90;;;;;;10149535;28;86882;-44
2022/01/19 03:12:20;;;;;;;20.33;6.22;;;4.50;99.90;;;;;;10148951;28;86203;-46
2022/01/19 03:17:23;;;;;;;17.63;7.13;;;4.80;99.90;;;;;;10148282;28;87189;-44
2022/01/19 03:22:30;;;;;;;16.08;7.15;;;4.90;99.90;;;;;;10165995;28;84906;-44
2022/01/19 03:27:30;;;;;;;19.40;7.25;;;5.00;99.90;;;;;;10146916;28;85942;-48
2022/01/19 03:32:31;;;;;;;14.32;5.65;;;5.10;99.90;;;;;;10148184;28;86819;-48
2022/01/19 03:37:32;;;;;;;14.05;5.60;;;5.10;99.90;;;;;;10152969;28;85964;-45
2022/01/19 03:42:33;;;;;;;16.27;6.13;;;5.10;99.90;;;;;;10194918;28;84842;-49
2022/01/19 03:47:40;;;;;;;20.85;6.80;;;5.10;99.90;;;;;;10162758;28;84830;-45
2022/01/19 03:52:41;;;;;;;14.93;6.82;;;5.00;99.90;;;;;;10161253;28;85810;-44
2022/01/19 03:57:42;;;;;;;20.70;7.20;;;4.80;99.90;;;;;;10186011;28;86080;-44
2022/01/19 04:02:42;;;;;;;19.55;6.78;;;4.40;99.90;;;;;;10186917;28;85707;-45
2022/01/19 04:07:43;;;;;;;16.55;6.75;;;4.20;99.90;;;;;;10185324;28;86044;-44
2022/01/19 04:12:55;;;;;;;15.70;6.07;;;4.00;99.90;;;;;;10169699;28;85846;-44
2022/01/19 04:17:56;;;;;;;16.50;5.75;;;3.80;99.90;;;;;;10164749;28;85097;-44
2022/01/19 04:22:56;;;;;;;16.23;6.00;;;3.80;99.90;;;;;;10155586;28;85928;-44
2022/01/19 04:27:57;;;;;;;10.63;4.93;;;3.70;99.90;;;;;;10153256;28;85814;-44
2022/01/19 04:33:16;;;;;;;16.45;6.03;;;3.70;99.90;;;;;;10153087;28;86862;-44
2022/01/19 04:54:29;;;;;;;7.85;4.47;;;3.20;99.90;;;;;;10192241;28;86049;-45
2022/01/19 05:13:25;;;;;;;10.68;5.28;;;3.20;99.90;;;;;;10190536;28;87171;-44
2022/01/19 05:15:23;;;;;;;10.77;4.43;;;3.20;99.90;;;;;;10163746;28;86623;-42
2022/01/19 05:20:23;;;;;;;12.80;4.60;;;3.20;99.90;;;;;;10166711;28;86550;-46
2022/01/19 05:25:24;;;;;;;13.57;3.88;;;3.20;99.90;;;;;;10193128;22;84560;-47
2022/01/19 05:30:33;;;;;;;12.00;4.75;;;3.10;99.90;;;;;;10266772;28;84797;-48
2022/01/19 05:35:35;;;;;;;9.68;4.05;;;3.10;99.90;;;;;;10260974;28;85767;-48
2022/01/19 05:40:54;;;;;;;14.98;4.60;;;2.90;99.90;;;;;;10245910;28;84125;-48
2022/01/19 05:45:55;;;;;;;9.00;3.92;;;2.80;99.90;;;;;;10244060;28;86961;-47
2022/01/19 05:50:57;;;;;;;9.45;4.15;;;2.80;99.90;;;;;;10245872;28;84154;-50
2022/01/19 05:56:02;;;;;;;11.15;4.63;;;2.70;99.90;;;;;;10244039;28;86589;-51
2022/01/19 06:01:06;;;;;;;8.55;4.47;;;2.70;99.90;;;;;;10243932;28;86011;-51
2022/01/19 06:06:07;;;;;;;8.52;4.32;;;2.70;99.90;;;;;;10241739;28;87023;-53
2022/01/19 06:11:32;;;;;;;11.63;5.47;;;2.80;99.90;;;;;;10235854;28;85786;-47
2022/01/19 06:16:36;;;;;;;9.60;5.30;;;3.20;99.90;;;;;;10245482;28;86041;-49
2022/01/19 06:21:37;;;;;;;7.68;4.38;;;3.30;99.90;;;;;;10227195;28;85886;-46
2022/01/19 06:26:38;;;;;;;8.68;4.30;;;3.50;99.90;;;;;;10226695;28;86854;-51
2022/01/19 06:31:39;;;;;;;8.20;4.22;;;3.50;99.90;;;;;;10243635;28;86927;-47
2022/01/19 06:36:43;;;;;;;10.75;4.90;;;3.70;99.90;;;;;;10239154;28;85900;-47
2022/01/19 06:42:03;;;;;;;8.82;4.68;;;3.80;99.90;;;;;;10234673;28;84472;-49
2022/01/19 06:47:04;;;;;;;13.63;6.07;;;3.90;99.90;;;;;;10241517;28;87027;-48
2022/01/19 06:52:06;;;;;;;10.25;4.55;;;3.90;99.90;;;;;;10241548;28;87184;-53
2022/01/19 06:57:09;;;;;;;10.82;5.20;;;3.90;99.90;;;;;;10240077;28;86080;-47
2022/01/19 07:02:30;;;;;;;9.98;5.25;;;4.00;99.90;;;;;;10242520;28;85946;-52
2022/01/19 07:07:36;;;;;;;9.05;4.95;;;4.10;99.90;;;;;;10240108;28;84919;-53
2022/01/19 07:12:39;;;;;;;11.07;5.38;;;4.20;99.90;;;;;;10241040;28;86750;-58
2022/01/19 07:17:41;;;;;;;8.60;5.28;;;4.30;99.90;;;;;;10241627;28;86729;-55
2022/01/19 07:22:42;;;;;;;13.57;6.68;;;4.30;99.90;;;;;;10240985;28;85856;-55
2022/01/19 07:27:43;;;;;;;13.25;6.00;;;4.50;99.90;;;;;;10240557;28;85959;-53
2022/01/19 07:32:48;;;;;;;11.93;6.32;;;4.60;99.90;;;;;;10241399;28;86220;-57
2022/01/19 07:37:49;;;;;;;10.65;5.80;;;4.60;99.90;;;;;;10242261;28;86034;-56
2022/01/19 07:42:52;;;;;;;9.48;5.65;;;4.70;99.90;;;;;;10242897;28;87128;-55
2022/01/19 07:48:11;;;;;;;13.43;5.63;;;4.80;99.90;;;;;;10239611;28;84369;-54
2022/01/19 07:53:30;;;;;;;11.75;7.00;;;4.80;99.90;;;;;;10217973;28;84556;-56
2022/01/19 07:58:45;;;;;;;8.82;5.15;;;5.00;99.90;;;;;;10243768;28;84217;-51
2022/01/19 08:03:49;;;;;;;9.95;5.70;;;4.90;97.20;;;;;;10242452;28;86794;-56
2022/01/19 08:09:01;;;;;;;10.85;5.22;;;4.90;74.70;;;;;;10242396;28;85742;-55
2022/01/19 08:14:02;;;;;;;10.75;6.25;;;4.90;89.00;;;;;;10234725;28;85977;-56
2022/01/19 08:19:03;;;;;;;12.10;6.70;;;5.10;73.00;;;;;;10274059;28;86058;-53
2022/01/19 08:24:05;;;;;;;10.98;6.97;;;5.10;52.40;;;;;;10282474;28;86308;-54
2022/01/19 08:29:06;;;;;;;14.02;8.00;;;5.10;23.80;;;;;;10281596;28;85034;-54
2022/01/19 08:34:09;;;;;;;12.57;6.93;;;5.10;54.30;;;;;;10282230;28;85731;-57
2022/01/19 08:39:29;;;;;;;13.63;7.72;;;5.20;39.90;;;;;;10289642;28;84564;-52
2022/01/19 08:44:31;;;;;;;14.18;8.18;;;5.20;1.00;;;;;;10288688;28;85909;-53
2022/01/19 08:49:41;;;;;;;13.75;7.63;;;5.00;1.00;;;;;;10288388;28;87036;-53
2022/01/19 08:55:15;;;;;;;11.27;6.80;;;5.00;1.00;;;;;;10236343;28;84591;-54
2022/01/19 09:00:17;;;;;;;14.73;7.57;;;5.00;1.00;;;;;;10247343;28;85135;-53
2022/01/19 09:05:18;;;;;;;11.10;7.05;;;5.00;1.40;;;;;;10247763;28;84982;-50
2022/01/19 09:10:21;;;;;;;15.75;7.45;;;5.00;1.00;;;;;;10248023;28;84791;-52
2022/01/19 09:15:23;;;;;;;17.30;8.07;;;4.90;1.00;;;;;;10248489;28;84912;-53
2022/01/19 09:20:23;;;;;;;17.80;8.63;;;4.90;1.00;;;;;;10247328;28;84911;-55
2022/01/19 09:25:24;;;;;;;19.45;8.73;;;4.90;2.90;;;;;;10249765;28;84481;-53
2022/01/19 09:30:25;;;;;;;17.65;8.30;;;4.80;18.00;;;;;;10257429;28;84883;-57
2022/01/19 09:35:26;;;;;;;17.45;8.73;;;4.90;28.50;;;;;;10246779;28;84918;-57
2022/01/19 09:40:27;;;;;;;20.27;8.73;;;4.90;32.30;;;;;;10246894;28;84900;-54
2022/01/19 09:45:27;;;;;;;21.00;8.73;;;4.90;55.50;;;;;;10245993;28;84455;-52
2022/01/19 09:50:28;;;;;;;21.95;8.27;;;4.90;58.90;;;;;;10246873;28;85008;-58
2022/01/19 09:55:29;;;;;;;17.75;7.53;;;4.90;96.00;;;;;;10247235;28;84918;-49
2022/01/19 10:00:30;;;;;;;17.25;8.38;;;4.90;92.60;;;;;;10253730;28;84869;-50
2022/01/19 10:05:31;;;;;;;23.25;9.25;;;5.00;94.60;;;;;;10282864;28;84159;-57
2022/01/19 10:10:31;;;;;;;23.08;8.82;;;5.00;99.90;;;;;;10281988;28;84118;-51
2022/01/19 10:21:13;;;;;;;19.52;8.05;;;4.90;99.90;;;;;;10247190;28;84917;-55
2022/01/19 10:26:16;;;;;;;22.13;7.78;;;4.80;99.90;;;;;;10245617;28;84745;-53
2022/01/19 10:31:17;;;;;;;16.55;7.78;;;4.90;99.90;;;;;;10257816;28;86324;-53
2022/01/19 10:36:18;;;;;;;17.48;7.90;;;5.00;99.90;;;;;;10279546;28;84775;-54
2022/01/19 10:41:19;;;;;;;19.33;8.63;;;4.90;99.90;;;;;;10262265;28;84763;-58
2022/01/19 10:46:39;;;;;;;20.45;7.93;;;4.90;99.90;;;;;;10245642;28;86712;-59
2022/01/19 10:51:46;;;;;;;19.67;8.00;;;4.80;99.90;;;;;;10246514;28;84142;-53
2022/01/19 10:56:54;;;;;;;21.92;8.05;;;4.90;99.90;;;;;;10242062;28;85120;-55
2022/01/19 11:01:57;;;;;;;21.25;8.57;;;4.90;99.90;;;;;;10270963;28;84243;-54
2022/01/19 11:06:59;;;;;;;21.65;9.30;;;4.80;99.90;;;;;;10266728;28;84090;-52
2022/01/19 11:12:05;;;;;;;20.70;8.10;;;4.70;99.90;;;;;;10246649;28;85387;-50
2022/01/19 11:17:07;;;;;;;21.75;8.98;;;4.80;99.90;;;;;;10243971;28;86983;-58
2022/01/19 11:22:35;;;;;;;23.23;9.68;;;4.80;99.90;;;;;;10244617;28;84198;-51
2022/01/19 11:27:44;;;;;;;24.13;9.98;;;4.80;99.90;;;;;;10303386;22;85405;-53
2022/01/19 11:33:18;;;;;;;19.38;9.48;;;4.90;99.90;;;;;;10310331;28;85044;-53
2022/01/19 11:38:38;;;;;;;20.38;8.52;;;5.10;99.90;;;;;;10284205;28;84899;-54
2022/01/19 11:43:52;;;;;;;20.95;9.45;;;5.00;99.90;;;;;;10265846;28;84251;-50
2022/01/19 11:48:53;;;;;;;21.75;9.30;;;5.10;99.90;;;;;;10265696;28;85368;-58
2022/01/19 11:54:07;;;;;;;17.30;7.78;;;4.90;99.90;;;;;;10273990;28;84208;-51
2022/01/19 11:59:09;;;;;;;22.20;8.70;;;4.70;99.90;;;;;;10286431;28;84724;-54
2022/01/19 12:04:19;;;;;;;17.90;8.32;;;4.80;99.90;;;;;;10283267;28;84997;-54
2022/01/19 12:09:19;;;;;;;17.63;8.98;;;4.80;99.90;;;;;;10318875;28;84747;-51
2022/01/19 12:14:34;;;;;;;16.92;8.55;;;4.80;99.90;;;;;;10333251;28;87348;-55
2022/01/19 12:19:43;;;;;;;18.98;8.00;;;4.90;99.90;;;;;;10334335;28;85036;-58
2022/01/19 12:24:56;;;;;;;21.10;7.88;;;4.90;99.90;;;;;;10338806;28;84846;-60
2022/01/19 12:30:17;;;;;;;23.83;9.05;;;5.00;99.90;;;;;;10333108;28;83987;-61
2022/01/19 12:35:31;;;;;;;16.95;7.68;;;4.90;99.90;;;;;;10334726;28;84079;-58
2022/01/19 12:40:40;;;;;;;19.10;7.57;;;4.90;99.90;;;;;;10303197;28;84617;-58
2022/01/19 12:45:45;;;;;;;17.58;7.38;;;5.10;99.90;;;;;;10319059;28;84374;-55
2022/01/19 12:50:48;;;;;;;14.27;6.78;;;5.10;99.90;;;;;;10289603;28;86371;-61
2022/01/19 12:55:53;;;;;;;19.75;7.22;;;5.10;99.90;;;;;;10280611;28;84512;-60
2022/01/19 13:00:58;;;;;;;18.13;8.18;;;5.20;99.90;;;;;;10273075;28;84383;-58
2022/01/19 13:06:08;;;;;;;18.17;8.13;;;5.20;99.90;;;;;;10268743;28;84890;-61
2022/01/19 13:11:31;;;;;;;22.40;8.48;;;5.20;99.90;;;;;;10291979;28;85789;-59
2022/01/19 13:16:40;;;;;;;21.40;7.18;;;5.30;99.90;;;;;;10306680;28;84740;-62
2022/01/19 13:21:44;;;;;;;15.18;7.43;;;5.20;99.90;;;;;;10267606;28;84032;-61
2022/01/19 13:26:53;;;;;;;17.27;7.68;;;5.20;99.90;;;;;;10269093;28;84809;-61
2022/01/19 13:32:07;;;;;;;19.58;8.63;;;5.00;99.90;;;;;;10261067;28;84879;-56
2022/01/19 13:37:08;;;;;;;18.00;7.75;;;5.00;99.90;;;;;;10268268;28;84008;-50
2022/01/19 13:42:09;;;;;;;20.70;8.30;;;4.90;99.90;;;;;;10295411;28;86048;-54
2022/01/19 13:47:25;;;;;;;17.27;8.27;;;5.00;99.90;;;;;;10299035;28;84815;-57
2022/01/19 13:52:26;;;;;;;16.92;7.43;;;5.10;99.90;;;;;;10300995;28;84925;-57
2022/01/19 13:57:30;;;;;;;17.63;7.75;;;5.00;99.90;;;;;;10322399;28;84100;-59
2022/01/19 14:02:31;;;;;;;21.02;8.25;;;4.90;99.90;;;;;;10329541;28;85162;-59
2022/01/19 14:07:31;;;;;;;18.42;8.05;;;5.00;99.90;;;;;;10330398;28;84724;-52
2022/01/19 14:12:32;;;;;;;19.20;8.05;;;5.00;99.90;;;;;;10325837;28;84909;-60
2022/01/19 14:17:40;;;;;;;19.70;8.77;;;5.00;99.90;;;;;;10295672;28;84835;-55
2022/01/19 14:22:40;;;;;;;18.45;8.85;;;5.00;99.90;;;;;;10282497;28;84751;-56
2022/01/19 14:27:53;;;;;;;17.20;7.60;;;4.90;99.90;;;;;;10257875;28;84239;-49
2022/01/19 14:32:55;;;;;;;20.83;8.63;;;5.00;99.90;;;;;;10260952;28;86036;-60
2022/01/19 14:38:14;;;;;;;18.33;7.80;;;5.00;99.90;;;;;;10291331;28;86149;-61
2022/01/19 14:43:18;;;;;;;17.90;6.93;;;5.00;99.90;;;;;;10252495;28;84149;-58
2022/01/19 14:48:23;;;;;;;16.15;7.18;;;5.00;99.90;;;;;;10268449;28;84009;-54
2022/01/19 14:53:23;;;;;;;14.25;6.78;;;5.00;99.90;;;;;;10302193;28;84885;-60
2022/01/19 14:58:26;;;;;;;18.35;7.93;;;5.10;99.90;;;;;;10295771;28;85297;-50
2022/01/19 15:03:26;;;;;;;13.35;6.13;;;5.00;99.90;;;;;;10270694;28;85690;-61
2022/01/19 15:08:28;;;;;;;22.00;7.95;;;5.00;99.90;;;;;;10253946;28;84251;-61
2022/01/19 15:13:29;;;;;;;18.50;8.07;;;5.10;99.90;;;;;;10269567;28;84826;-50
2022/01/19 15:18:30;;;;;;;19.15;8.23;;;5.10;99.90;;;;;;10287157;28;84126;-53
2022/01/19 15:23:31;;;;;;;19.35;7.43;;;5.00;99.90;;;;;;10278660;28;85072;-57
2022/01/19 15:28:32;;;;;;;20.98;8.93;;;4.90;99.90;;;;;;10272754;28;84799;-62
2022/01/19 15:33:33;;;;;;;18.27;8.20;;;5.00;99.90;;;;;;10272616;28;85641;-60
2022/01/19 15:38:35;;;;;;;18.67;8.93;;;4.90;99.90;;;;;;10315155;28;84084;-53
2022/01/19 15:43:36;;;;;;;21.73;9.52;;;4.80;99.90;;;;;;10327698;28;85029;-55
2022/01/19 15:48:36;;;;;;;18.45;8.93;;;4.70;99.90;;;;;;10333409;28;85042;-56
2022/01/19 15:53:37;;;;;;;22.85;9.20;;;4.60;99.90;;;;;;10310274;28;84932;-52
2022/01/19 15:58:38;;;;;;;23.80;11.32;;;4.60;99.90;;;;;;10323698;28;86168;-55
2022/01/19 16:03:38;;;;;;;22.48;9.07;;;4.70;99.90;;;;;;10332524;28;87200;-53
2022/01/19 16:08:39;;;;;;;23.40;9.95;;;4.70;99.90;;;;;;10332736;28;86628;-56
2022/01/19 16:13:40;;;;;;;22.17;9.15;;;4.80;99.90;;;;;;10301446;28;84349;-56
2022/01/19 16:18:40;;;;;;;22.88;9.50;;;4.80;99.90;;;;;;10281996;28;86645;-53
2022/01/19 16:29:01;;;;;;;22.77;10.10;;;4.80;99.90;;;;;;10289805;28;84283;-52
2022/01/19 16:34:03;;;;;;;25.48;10.52;;;4.90;99.90;;;;;;10288912;28;84289;-55
2022/01/19 16:39:06;;;;;;;31.23;12.02;;;4.90;99.90;;;;;;10289650;28;84304;-56
2022/01/19 16:44:07;;;;;;;28.92;11.07;;;5.00;99.90;;;;;;10287982;28;85170;-59
2022/01/19 16:49:15;;;;;;;27.65;11.35;;;5.10;99.90;;;;;;10289805;28;84752;-51
2022/01/19 16:54:16;;;;;;;29.73;11.10;;;5.10;99.90;;;;;;10287379;28;84989;-52
2022/01/19 16:59:17;;;;;;;28.27;9.90;;;5.10;99.90;;;;;;10286811;28;84308;-55
2022/01/19 17:04:18;;;;;;;24.70;9.20;;;5.00;99.90;;;;;;10283679;28;85789;-54
2022/01/19 17:09:18;;;;;;;28.95;12.10;;;5.00;99.90;;;;;;10288983;28;84096;-51
2022/01/19 17:14:23;;;;;;;23.35;9.82;;;5.00;99.90;;;;;;10284020;28;84902;-54
2022/01/19 17:19:26;;;;;;;24.95;9.43;;;5.00;99.90;;;;;;10287799;28;84269;-53
2022/01/19 17:24:27;;;;;;;19.95;8.95;;;4.90;99.90;;;;;;10293662;28;85027;-50
2022/01/19 17:29:28;;;;;;;19.33;9.38;;;5.00;99.90;;;;;;10273465;22;85459;-50
2022/01/19 17:34:29;;;;;;;22.33;10.45;;;5.00;99.90;;;;;;10244079;28;84778;-50
2022/01/19 17:39:30;;;;;;;23.17;8.63;;;5.10;99.90;;;;;;10231049;28;87095;-52
2022/01/19 17:44:31;;;;;;;24.73;9.63;;;5.10;99.90;;;;;;10200810;28;84947;-49
2022/01/19 17:54:42;;;;;;;22.95;9.00;;;5.10;99.90;;;;;;10204562;28;85001;-54
2022/01/19 17:59:43;;;;;;;19.30;8.60;;;5.20;99.90;;;;;;10211152;28;84972;-51
2022/01/19 18:04:45;;;;;;;22.67;9.45;;;5.20;99.90;;;;;;10211440;28;85041;-48
2022/01/19 18:09:48;;;;;;;24.95;9.82;;;5.30;99.90;;;;;;10211665;28;84823;-47
2022/01/19 18:14:48;;;;;;;26.73;10.70;;;5.30;99.90;;;;;;10210250;28;84278;-50
2022/01/19 18:19:49;;;;;;;19.08;9.38;;;5.30;99.90;;;;;;10204747;28;84972;-53
2022/01/19 18:24:52;;;;;;;19.88;8.90;;;5.20;99.90;;;;;;10247060;28;84968;-50
2022/01/19 18:29:52;;;;;;;18.98;8.20;;;5.30;99.90;;;;;;10206092;28;84191;-51
2022/01/19 18:34:53;;;;;;;22.88;10.63;;;5.40;99.90;;;;;;10207041;28;85149;-48
2022/01/19 18:39:55;;;;;;;22.52;10.15;;;5.40;99.90;;;;;;10216185;28;85041;-55
2022/01/19 18:44:56;;;;;;;22.70;10.65;;;5.40;99.90;;;;;;10211765;28;86865;-51
2022/01/19 18:49:57;;;;;;;25.33;10.48;;;5.30;99.90;;;;;;10208458;28;86984;-52
2022/01/19 18:54:58;;;;;;;28.98;12.00;;;5.50;99.90;;;;;;10230365;28;84851;-52
2022/01/19 18:59:58;;;;;;;28.30;11.50;;;5.50;99.90;;;;;;10207854;28;84863;-54
2022/01/19 19:04:59;;;;;;;27.05;11.27;;;5.50;99.90;;;;;;10246778;28;84820;-50
2022/01/19 19:15:11;;;;;;;27.55;12.32;;;5.70;99.90;;;;;;10210650;28;84971;-52
2022/01/19 19:20:13;;;;;;;28.25;12.10;;;5.70;99.90;;;;;;10210276;28;85006;-49
2022/01/19 19:25:16;;;;;;;27.23;11.02;;;5.70;99.90;;;;;;10204810;28;85218;-50
2022/01/19 19:30:18;;;;;;;29.90;12.98;;;5.80;99.90;;;;;;10216898;28;84173;-53
2022/01/19 19:35:19;;;;;;;32.95;11.30;;;5.80;99.90;;;;;;10211477;28;85092;-58
2022/01/19 19:40:22;;;;;;;36.35;12.82;;;5.80;99.90;;;;;;10201673;28;85143;-52
2022/01/19 19:45:23;;;;;;;28.92;12.00;;;5.80;99.90;;;;;;10220687;28;84468;-49
2022/01/19 19:50:26;;;;;;;28.77;10.90;;;5.90;99.90;;;;;;10207879;28;85082;-47
2022/01/19 19:55:30;;;;;;;23.88;10.93;;;5.90;99.90;;;;;;10216692;28;85467;-51
2022/01/19 20:00:32;;;;;;;22.48;9.98;;;6.00;99.90;;;;;;10202227;28;87629;-52
2022/01/19 20:05:34;;;;;;;21.80;9.40;;;6.00;99.90;;;;;;10213770;28;84200;-53
2022/01/19 20:10:36;;;;;;;23.65;8.23;;;6.00;99.90;;;;;;10205408;28;85902;-48
2022/01/19 20:15:37;;;;;;;12.88;6.88;;;6.00;99.90;;;;;;10209283;28;84907;-53
2022/01/19 20:20:38;;;;;;;18.80;8.25;;;6.10;99.90;;;;;;10204707;28;84101;-55
2022/01/19 20:25:39;;;;;;;22.92;8.55;;;6.10;99.90;;;;;;10188944;28;86205;-48
2022/01/19 20:30:40;;;;;;;17.50;6.47;;;6.20;99.90;;;;;;10217962;28;85210;-51
2022/01/19 20:35:41;;;;;;;18.83;7.05;;;6.20;99.90;;;;;;10225755;28;87268;-48
2022/01/19 20:40:42;;;;;;;17.73;6.60;;;6.20;99.90;;;;;;10232073;28;84928;-51
2022/01/19 20:45:42;;;;;;;14.80;5.35;;;6.30;99.90;;;;;;10216636;28;84979;-50
2022/01/19 20:50:43;;;;;;;16.55;5.15;;;6.30;99.90;;;;;;10208651;28;86869;-50
2022/01/19 20:55:44;;;;;;;15.10;5.00;;;6.30;99.90;;;;;;10221640;28;84922;-48
2022/01/19 21:00:46;;;;;;;17.42;4.80;;;6.30;99.90;;;;;;10225701;28;84727;-49
2022/01/19 21:05:47;;;;;;;19.65;5.05;;;6.30;99.90;;;;;;10219738;28;84184;-49
2022/01/19 21:10:48;;;;;;;12.07;4.13;;;6.30;99.90;;;;;;10224797;28;84174;-52
2022/01/19 21:15:48;;;;;;;7.38;2.65;;;6.20;99.90;;;;;;10205225;28;84965;-50
2022/01/19 21:20:49;;;;;;;13.82;3.88;;;6.20;99.90;;;;;;10219883;28;85048;-50
2022/01/19 21:25:50;;;;;;;8.25;2.22;;;6.20;99.90;;;;;;10207772;28;84091;-48
2022/01/19 21:30:50;;;;;;;13.10;2.72;;;6.20;99.90;;;;;;10208265;28;84679;-57
2022/01/19 21:35:52;;;;;;;10.35;2.45;;;6.30;99.90;;;;;;10206951;28;84288;-53
2022/01/19 21:40:52;;;;;;;6.38;1.92;;;6.20;99.90;;;;;;10233675;28;84066;-49
2022/01/19 21:45:53;;;;;;;7.50;1.98;;;6.20;99.90;;;;;;10245109;28;86915;-52
2022/01/19 21:50:56;;;;;;;14.73;2.13;;;6.20;99.90;;;;;;10247202;28;85326;-54
2022/01/19 21:55:58;;;;;;;11.73;2.15;;;6.10;99.90;;;;;;10229019;28;84102;-51
2022/01/19 22:00:59;;;;;;;6.20;1.33;;;6.00;99.90;;;;;;10238321;28;84903;-50
2022/01/19 22:06:00;;;;;;;6.57;1.45;;;5.90;99.90;;;;;;10220821;28;84747;-48
2022/01/19 22:11:00;;;;;;;9.13;1.25;;;5.90;99.90;;;;;;10214214;28;84936;-48
2022/01/19 22:16:01;;;;;;;11.75;1.40;;;5.80;99.90;;;;;;10205404;28;84204;-50
2022/01/19 22:21:02;;;;;;;3.65;1.05;;;5.70;99.90;;;;;;10206366;28;84937;-51
2022/01/19 22:26:02;;;;;;;15.57;1.52;;;5.70;99.90;;;;;;10211859;28;84911;-52
2022/01/19 22:31:06;;;;;;;7.03;1.15;;;5.60;99.90;;;;;;10231059;28;84982;-48
2022/01/19 22:36:07;;;;;;;13.25;1.80;;;5.60;99.90;;;;;;10230044;28;84260;-51
2022/01/19 22:41:09;;;;;;;8.32;1.30;;;5.50;99.90;;;;;;10242924;28;84883;-49
2022/01/19 22:46:13;;;;;;;16.77;1.60;;;5.40;99.90;;;;;;10217045;28;86245;-50
2022/01/19 22:51:14;;;;;;;12.85;1.63;;;5.40;99.90;;;;;;10236633;28;84922;-48
2022/01/19 22:56:15;;;;;;;8.80;1.75;;;5.40;99.90;;;;;;10243963;28;85791;-52
2022/01/19 23:01:16;;;;;;;9.65;1.30;;;5.30;99.90;;;;;;10221582;28;85000;-48
2022/01/19 23:06:17;;;;;;;6.70;1.75;;;5.20;99.90;;;;;;10228213;28;84095;-49
2022/01/19 23:11:20;;;;;;;10.38;1.10;;;5.20;99.90;;;;;;10243497;28;85064;-49
2022/01/19 23:16:21;;;;;;;8.77;1.60;;;5.10;99.90;;;;;;10243856;28;84797;-48
2022/01/19 23:21:24;;;;;;;5.43;1.27;;;5.00;99.90;;;;;;10227084;28;84373;-48
2022/01/19 23:26:27;;;;;;;15.38;1.40;;;5.00;99.90;;;;;;10273370;22;84859;-53
2022/01/19 23:31:28;;;;;;;9.25;2.22;;;5.00;99.90;;;;;;10246154;28;84221;-49
2022/01/19 23:36:33;;;;;;;4.95;0.73;;;4.90;99.90;;;;;;10244217;28;84076;-51
2022/01/19 23:52:13;;;;;;;6.70;1.70;;;4.90;99.90;;;;;;10246417;28;83981;-52
2022/01/19 23:57:21;;;;;;;7.50;1.25;;;4.90;99.90;;;;;;10245602;28;84727;-53
